Terminal Aerodrome Forecast
Issued by NWS

Home | Current Version | Previous Version | Text Only | Print | Product List | Glossary On
Versions: 1 2 3 4 5 6 7 8 9 10 11 12 13 14 15 16 17 18
293
FTUS41 KPBZ 061134
TAFZZV
TAF
KZZV 061134Z 0612/0712 09008KT 6SM -RA OVC040
     FM061400 10010G18KT 3SM -RA OVC015
     FM062200 21005KT P6SM VCSH OVC010
     FM070400 27008KT P6SM BKN015=

USA.gov is the U.S. government's official web portal to all federal, state and local government web resources and services.